createdAt,value
2023-01-15T00:00:15.139Z,99774.30
2023-01-15T00:03:20.361Z,99768.35
2023-01-15T00:06:05.892Z,99764.82
2023-01-15T00:08:52.497Z,99759.53
2023-01-15T00:11:38.459Z,99748.73
2023-01-15T00:14:24.126Z,99734.44
2023-01-15T00:17:09.989Z,99728.70
2023-01-15T00:19:55.575Z,99721.70
2023-01-15T00:22:40.997Z,99729.65
2023-01-15T00:25:45.374Z,99719.93
2023-01-15T00:28:30.399Z,99706.89
2023-01-15T00:31:15.686Z,99704.61
2023-01-15T00:34:01.892Z,99689.33
2023-01-15T00:36:47.389Z,99679.48
2023-01-15T00:39:33.936Z,99679.23
2023-01-15T00:42:19.021Z,99683.11
2023-01-15T00:45:09.479Z,99678.21
2023-01-15T00:47:54.779Z,99682.61
2023-01-15T00:50:39.866Z,99672.23
2023-01-15T00:53:25.423Z,99664.41
2023-01-15T00:56:10.735Z,99666.13
2023-01-15T00:58:56.109Z,99660.30
2023-01-15T01:01:41.579Z,99657.56
2023-01-15T01:04:26.610Z,99650.34
2023-01-15T01:07:12.870Z,99650.15
2023-01-15T01:09:58.194Z,99646.01
2023-01-15T01:12:43.831Z,99637.81
2023-01-15T01:15:29.107Z,99641.73
2023-01-15T01:18:14.526Z,99644.06
2023-01-15T01:20:59.574Z,99635.61
2023-01-15T01:23:45.298Z,99642.31
2023-01-15T01:26:30.876Z,99636.65
2023-01-15T01:29:20.568Z,99631.84
2023-01-15T01:32:05.576Z,99633.77
2023-01-15T01:34:50.849Z,99631.77
2023-01-15T01:37:36.600Z,99623.89
2023-01-15T01:40:22.072Z,99626.65
2023-01-15T01:43:20.060Z,99623.02
2023-01-15T01:46:05.562Z,99617.64
2023-01-15T01:48:55.416Z,99618.67
2023-01-15T01:51:47.871Z,99621.56
2023-01-15T01:54:35.397Z,99611.74
2023-01-15T01:57:21.647Z,99589.55
2023-01-15T02:00:10.455Z,99594.55
2023-01-15T02:02:55.835Z,99588.27
2023-01-15T02:05:53.845Z,99567.23
2023-01-15T02:08:39.778Z,99550.45
2023-01-15T02:11:25.064Z,99561.98
2023-01-15T02:14:24.991Z,99556.13
2023-01-15T02:17:24.955Z,99543.35
2023-01-15T02:20:21.192Z,99554.88
2023-01-15T02:23:28.524Z,99552.95
2023-01-15T02:26:40.331Z,99551.98
2023-01-15T02:29:37.585Z,99561.35
2023-01-15T02:32:45.337Z,99556.64
2023-01-15T02:35:33.563Z,99556.48
2023-01-15T02:38:22.276Z,99567.08
2023-01-15T02:41:15.643Z,99550.05
2023-01-15T02:44:04.425Z,99551.05
2023-01-15T02:46:49.581Z,99542.73
2023-01-15T02:49:37.281Z,99549.84
2023-01-15T02:52:27.758Z,99530.79
2023-01-15T02:55:21.558Z,99534.05
2023-01-15T02:58:13.735Z,99518.36
2023-01-15T03:01:03.872Z,99505.59
2023-01-15T03:04:02.714Z,99490.36
2023-01-15T03:06:55.365Z,99472.75
2023-01-15T03:09:41.252Z,99477.44
2023-01-15T03:12:55.589Z,99482.82
2023-01-15T03:16:27.725Z,99471.79
2023-01-15T03:19:25.273Z,99463.73
2023-01-15T03:22:31.707Z,99450.68
2023-01-15T03:25:42.103Z,99451.25
2023-01-15T03:28:34.414Z,99450.79
2023-01-15T03:31:19.483Z,99462.61
2023-01-15T03:34:06.680Z,99465.76
2023-01-15T03:36:52.236Z,99469.23
2023-01-15T03:39:37.939Z,99458.17
2023-01-15T03:42:26.152Z,99442.67
2023-01-15T03:45:25.682Z,99436.34
2023-01-15T03:48:21.292Z,99426.60
2023-01-15T03:51:42.044Z,99424.40
2023-01-15T03:54:47.766Z,99408.70
2023-01-15T03:57:47.989Z,99412.27
2023-01-15T04:00:41.981Z,99419.67
2023-01-15T04:03:30.392Z,99423.09
2023-01-15T04:06:17.032Z,99414.78
2023-01-15T04:09:06.811Z,99394.04
2023-01-15T04:11:52.208Z,99395.73
2023-01-15T04:14:37.329Z,99394.23
2023-01-15T04:17:22.691Z,99394.52
2023-01-15T04:20:09.310Z,99386.58
2023-01-15T04:22:54.580Z,99388.52
2023-01-15T04:25:40.360Z,99383.87
2023-01-15T04:28:25.234Z,99381.14
2023-01-15T04:31:12.280Z,99366.91
2023-01-15T04:33:57.707Z,99366.39
2023-01-15T04:36:45.891Z,99350.22
2023-01-15T04:39:31.413Z,99339.64
2023-01-15T04:42:35.828Z,99333.09
2023-01-15T04:45:20.790Z,99333.02
2023-01-15T04:48:06.037Z,99321.86
2023-01-15T04:50:51.852Z,99328.83
2023-01-15T04:53:36.688Z,99334.56
2023-01-15T04:56:22.218Z,99320.15
2023-01-15T04:59:08.032Z,99310.95
2023-01-15T05:02:03.712Z,99302.11
2023-01-15T05:04:50.164Z,99300.90
2023-01-15T05:07:35.777Z,99314.81
2023-01-15T05:10:21.002Z,99304.55
2023-01-15T05:13:06.251Z,99303.24
2023-01-15T05:15:51.145Z,99293.21
2023-01-15T05:18:36.996Z,99291.33
2023-01-15T05:21:27.648Z,99291.70
2023-01-15T05:24:15.562Z,99292.86
2023-01-15T05:27:01.431Z,99287.70
2023-01-15T05:29:47.315Z,99282.01
2023-01-15T05:32:32.519Z,99272.27
2023-01-15T05:35:17.928Z,99275.70
2023-01-15T05:38:05.711Z,99278.27
2023-01-15T05:40:50.802Z,99288.98
2023-01-15T05:43:36.013Z,99274.27
2023-01-15T05:46:22.053Z,99272.20
2023-01-15T05:49:13.402Z,99275.42
2023-01-15T05:52:00.080Z,99272.95
2023-01-15T05:54:45.219Z,99271.20
2023-01-15T05:57:32.150Z,99273.31
2023-01-15T06:00:18.118Z,99271.45
2023-01-15T06:03:03.594Z,99266.36
2023-01-15T06:05:55.962Z,99260.48
2023-01-15T06:08:41.807Z,99264.52
2023-01-15T06:11:27.190Z,99258.37
2023-01-15T06:14:12.602Z,99247.95
2023-01-15T06:16:57.848Z,99246.60
2023-01-15T06:19:43.287Z,99243.52
2023-01-15T06:22:29.189Z,99242.95
2023-01-15T06:25:14.183Z,99233.59
2023-01-15T06:27:59.012Z,99228.98
2023-01-15T06:30:44.555Z,99227.07
2023-01-15T06:33:29.587Z,99212.31
2023-01-15T06:36:17.375Z,99222.62
2023-01-15T06:39:05.102Z,99218.41
2023-01-15T06:42:09.208Z,99212.34
2023-01-15T06:45:12.804Z,99217.98
2023-01-15T06:47:58.023Z,99223.33
2023-01-15T06:50:43.650Z,99228.91
2023-01-15T06:53:28.673Z,99227.02
2023-01-15T06:56:14.791Z,99221.52
2023-01-15T06:59:00.149Z,99203.70
2023-01-15T07:01:47.215Z,99208.33
2023-01-15T07:04:32.705Z,99198.08
2023-01-15T07:07:19.359Z,99208.42
2023-01-15T07:10:05.038Z,99202.45
2023-01-15T07:12:51.052Z,99202.98
2023-01-15T07:15:39.656Z,99191.73
2023-01-15T07:18:25.443Z,99195.51
2023-01-15T07:21:10.683Z,99194.45
2023-01-15T07:23:59.289Z,99198.69
2023-01-15T07:26:45.106Z,99204.48
2023-01-15T07:29:31.537Z,99200.45
2023-01-15T07:32:18.338Z,99199.13
2023-01-15T07:35:03.984Z,99191.00
2023-01-15T07:37:52.263Z,99186.69
2023-01-15T07:40:38.336Z,99187.89
2023-01-15T07:43:44.167Z,99183.60
2023-01-15T07:46:48.518Z,99179.40
2023-01-15T07:49:46.240Z,99174.21
2023-01-15T07:52:31.705Z,99167.66
2023-01-15T07:55:16.946Z,99172.61
2023-01-15T07:58:03.393Z,99164.88
2023-01-15T08:00:48.373Z,99162.95
2023-01-15T08:03:34.070Z,99163.27
2023-01-15T08:06:19.074Z,99165.33
2023-01-15T08:09:04.923Z,99166.61
2023-01-15T08:12:10.515Z,99170.39
2023-01-15T08:15:16.544Z,99162.36
2023-01-15T08:18:01.973Z,99165.84
2023-01-15T08:20:47.654Z,99167.73
2023-01-15T08:23:33.144Z,99165.70
2023-01-15T08:26:18.248Z,99164.52
2023-01-15T08:29:03.367Z,99157.70
2023-01-15T08:31:48.857Z,99159.62
2023-01-15T08:34:35.176Z,99156.27
2023-01-15T08:37:20.660Z,99158.91
2023-01-15T08:40:07.171Z,99155.58
2023-01-15T08:42:55.652Z,99160.23
2023-01-15T08:45:41.759Z,99153.80
2023-01-15T08:48:31.202Z,99150.62
2023-01-15T08:51:16.683Z,99144.73
2023-01-15T08:54:01.916Z,99142.70
2023-01-15T08:56:49.104Z,99149.15
2023-01-15T08:59:34.684Z,99141.28
2023-01-15T09:02:20.153Z,99144.34
2023-01-15T09:05:06.072Z,99142.05
2023-01-15T09:07:51.503Z,99145.66
2023-01-15T09:10:37.275Z,99139.45
2023-01-15T09:13:22.707Z,99143.52
2023-01-15T09:16:09.509Z,99130.59
2023-01-15T09:18:56.831Z,99137.36
2023-01-15T09:21:43.974Z,99135.60
2023-01-15T09:24:29.327Z,99136.58
2023-01-15T09:27:14.312Z,99128.14
2023-01-15T09:29:59.670Z,99126.77
2023-01-15T09:32:45.097Z,99128.52
2023-01-15T09:35:30.591Z,99115.20
2023-01-15T09:38:18.854Z,99119.33
2023-01-15T09:41:33.073Z,99115.53
2023-01-15T09:44:33.100Z,99112.91
2023-01-15T09:48:01.920Z,99112.98
2023-01-15T09:51:09.373Z,99115.36
2023-01-15T09:54:04.977Z,99114.23
2023-01-15T09:56:52.362Z,99104.90
2023-01-15T09:59:44.733Z,99107.91
2023-01-15T10:02:41.195Z,99102.98
2023-01-15T10:05:36.160Z,99099.89
2023-01-15T10:08:37.105Z,99089.91
2023-01-15T10:11:52.017Z,99086.28
2023-01-15T10:14:42.900Z,99091.25
2023-01-15T10:17:34.588Z,99078.59
2023-01-15T10:20:59.153Z,99076.66
2023-01-15T10:24:11.186Z,99085.23
2023-01-15T10:26:59.032Z,99074.20
2023-01-15T10:30:13.801Z,99077.11
2023-01-15T10:33:11.055Z,99065.98
2023-01-15T10:36:15.221Z,99066.68
2023-01-15T10:39:22.655Z,99064.55
2023-01-15T10:42:42.489Z,99061.00
2023-01-15T10:45:37.637Z,99055.13
2023-01-15T10:48:41.262Z,99055.83
2023-01-15T10:51:37.802Z,99047.89
2023-01-15T10:54:58.753Z,99046.00
2023-01-15T10:58:10.838Z,99044.02
2023-01-15T11:01:03.006Z,99038.66
2023-01-15T11:03:49.662Z,99036.91
2023-01-15T11:06:35.870Z,99037.10
2023-01-15T11:09:31.208Z,99038.83
2023-01-15T11:12:26.257Z,99027.94
2023-01-15T11:15:37.137Z,99026.19
2023-01-15T11:19:08.055Z,99021.19
2023-01-15T11:21:54.285Z,99021.48
2023-01-15T11:24:53.538Z,99023.79
2023-01-15T11:27:39.274Z,99020.13
2023-01-15T11:30:29.229Z,99016.17
2023-01-15T11:33:33.291Z,99016.09
2023-01-15T11:36:23.422Z,99017.13
2023-01-15T11:39:30.643Z,99018.90
2023-01-15T11:42:40.682Z,99012.91
2023-01-15T11:49:05.750Z,99001.95
2023-01-15T11:51:51.392Z,99001.35
2023-01-15T11:54:39.509Z,99003.86
2023-01-15T11:57:51.166Z,99000.55
2023-01-15T12:00:59.097Z,99000.12
2023-01-15T12:03:46.898Z,98995.98
2023-01-15T12:06:37.798Z,98996.83
2023-01-15T12:09:33.874Z,98990.14
2023-01-15T12:12:26.825Z,98991.73
2023-01-15T12:15:23.768Z,98988.77
2023-01-15T12:18:49.185Z,98984.88
2023-01-15T12:22:05.313Z,98984.73
2023-01-15T12:25:18.592Z,98984.42
2023-01-15T12:34:16.620Z,98985.26
2023-01-15T12:37:21.411Z,98990.11
2023-01-15T12:40:14.803Z,98985.23
2023-01-15T12:43:20.593Z,98997.02
2023-01-15T12:46:13.587Z,98992.05
2023-01-15T12:49:24.619Z,98993.30
2023-01-15T12:52:21.154Z,98993.08
2023-01-15T12:55:22.791Z,98997.74
2023-01-15T12:58:27.517Z,99003.27
2023-01-15T13:01:21.995Z,99004.10
2023-01-15T13:04:26.281Z,99001.73
2023-01-15T13:07:38.847Z,98996.25
2023-01-15T13:10:35.016Z,98997.83
2023-01-15T13:13:30.014Z,99001.35
2023-01-15T13:16:28.201Z,99001.55
2023-01-15T13:19:46.583Z,98996.11
2023-01-15T13:22:46.756Z,98996.91
2023-01-15T13:25:34.831Z,98995.83
2023-01-15T13:28:44.422Z,99000.50
2023-01-15T13:31:37.520Z,98998.92
2023-01-15T13:34:40.509Z,98994.84
2023-01-15T13:37:32.105Z,98995.66
2023-01-15T13:40:44.602Z,98993.94
2023-01-15T13:43:36.968Z,98995.04
2023-01-15T13:46:24.477Z,99006.60
2023-01-15T13:49:34.522Z,98998.25
2023-01-15T13:52:31.439Z,99005.67
2023-01-15T13:55:33.067Z,99006.58
2023-01-15T13:58:29.103Z,99002.25
2023-01-15T14:01:21.428Z,99004.54
2023-01-15T14:04:14.710Z,99002.29
2023-01-15T14:07:01.627Z,99005.53
2023-01-15T14:09:48.962Z,99010.34
2023-01-15T14:12:52.855Z,99012.14
2023-01-15T14:16:05.907Z,99013.84
2023-01-15T14:19:08.022Z,99015.90
2023-01-15T14:21:58.002Z,99014.52
2023-01-15T14:24:50.682Z,99021.47
2023-01-15T14:27:51.539Z,99024.25
2023-01-15T14:31:15.909Z,99028.02
2023-01-15T14:34:20.628Z,99032.12
2023-01-15T14:37:25.324Z,99035.64
2023-01-15T14:40:24.064Z,99041.86
2023-01-15T14:43:21.270Z,99041.45
2023-01-15T14:46:29.461Z,99040.02
2023-01-15T14:49:30.283Z,99032.54
2023-01-15T14:52:24.069Z,99030.56
2023-01-15T14:55:12.788Z,99037.68
2023-01-15T14:58:21.885Z,99031.77
2023-01-15T15:01:21.584Z,99033.38
2023-01-15T15:04:35.666Z,99029.25
2023-01-15T15:07:36.241Z,99023.23
2023-01-15T15:10:40.518Z,99021.48
2023-01-15T15:13:40.688Z,99015.23
2023-01-15T15:16:31.586Z,99013.45
2023-01-15T15:19:42.631Z,99010.72
2023-01-15T15:34:47.789Z,99004.86
2023-01-15T15:38:06.021Z,99004.92
2023-01-15T15:41:02.301Z,99006.30
2023-01-15T15:44:12.123Z,99006.41
2023-01-15T15:47:17.258Z,99004.64
2023-01-15T15:50:42.991Z,99004.73
2023-01-15T15:53:31.955Z,99005.84
2023-01-15T15:56:18.550Z,99003.23
2023-01-15T15:59:06.344Z,99001.86
2023-01-15T16:01:53.016Z,98997.39
2023-01-15T16:04:44.517Z,98992.80
2023-01-15T16:07:36.961Z,98998.45
2023-01-15T16:10:32.686Z,99009.05
2023-01-15T16:13:47.147Z,99008.36
2023-01-15T16:16:32.893Z,99014.79
2023-01-15T16:19:22.775Z,99014.83
2023-01-15T16:22:14.934Z,99008.15
2023-01-15T16:25:03.337Z,99019.37
2023-01-15T16:28:06.840Z,99016.91
2023-01-15T16:31:23.658Z,99020.97
2023-01-15T16:34:20.447Z,99019.03
2023-01-15T16:48:21.236Z,99026.96
2023-01-15T16:51:33.496Z,99035.83
2023-01-15T16:54:30.562Z,99038.42
2023-01-15T16:57:34.735Z,99045.01
2023-01-15T17:00:31.415Z,99050.75
2023-01-15T17:03:21.332Z,99057.06
2023-01-15T17:06:16.262Z,99061.41
2023-01-15T17:09:16.614Z,99066.54
2023-01-15T17:13:48.386Z,99062.45
2023-01-15T17:27:34.007Z,99079.80
2023-01-15T17:30:31.392Z,99082.31
2023-01-15T17:33:19.896Z,99086.97
2023-01-15T17:36:07.735Z,99086.62
2023-01-15T17:38:58.075Z,99095.02
2023-01-15T17:41:45.599Z,99095.84
2023-01-15T17:44:33.238Z,99095.30
2023-01-15T17:47:22.081Z,99100.61
2023-01-15T17:51:15.139Z,99101.02
2023-01-15T17:54:03.186Z,99110.55
2023-01-15T17:57:06.890Z,99112.20
2023-01-15T18:00:12.375Z,99123.91
2023-01-15T18:03:26.606Z,99134.02
2023-01-15T18:06:15.038Z,99143.35
2023-01-15T18:09:04.028Z,99147.48
2023-01-15T18:11:49.947Z,99151.59
2023-01-15T18:14:38.149Z,99147.68
2023-01-15T18:17:58.965Z,99149.19
2023-01-15T18:20:45.893Z,99155.58
2023-01-15T18:23:37.522Z,99156.20
2023-01-15T18:26:45.145Z,99154.13
2023-01-15T18:29:33.003Z,99146.11
2023-01-15T18:32:20.949Z,99150.89
2023-01-15T18:35:07.795Z,99156.88
2023-01-15T18:37:54.276Z,99156.32
2023-01-15T18:40:40.257Z,99156.79
2023-01-15T18:43:45.237Z,99157.52
2023-01-15T18:46:46.851Z,99163.00
2023-01-15T18:49:34.257Z,99163.95
2023-01-15T18:52:40.359Z,99166.42
2023-01-15T18:55:26.258Z,99169.25
2023-01-15T18:58:12.632Z,99161.61
2023-01-15T19:01:06.865Z,99166.89
2023-01-15T19:03:52.689Z,99172.63
2023-01-15T19:06:41.983Z,99177.09
2023-01-15T19:09:28.216Z,99185.98
2023-01-15T19:12:16.754Z,99190.51
2023-01-15T19:15:22.666Z,99183.30
2023-01-15T19:18:29.810Z,99185.36
2023-01-15T19:21:17.873Z,99187.05
2023-01-15T19:24:04.097Z,99182.36
2023-01-15T19:26:49.603Z,99186.50
2023-01-15T19:29:38.433Z,99187.51
2023-01-15T19:32:24.561Z,99192.35
2023-01-15T19:35:10.770Z,99200.73
2023-01-15T19:37:57.103Z,99191.90
2023-01-15T19:40:42.937Z,99182.90
2023-01-15T19:43:47.934Z,99192.48
2023-01-15T19:46:53.118Z,99193.86
2023-01-15T19:49:57.918Z,99197.40
2023-01-15T19:52:44.601Z,99203.91
2023-01-15T19:55:32.495Z,99205.41
2023-01-15T19:58:19.011Z,99209.39
2023-01-15T20:01:05.857Z,99206.80
2023-01-15T20:03:51.867Z,99208.53
2023-01-15T20:06:40.183Z,99209.61
2023-01-15T20:09:25.892Z,99214.69
2023-01-15T20:12:31.105Z,99220.33
2023-01-15T20:15:17.057Z,99229.48
2023-01-15T20:18:03.246Z,99227.92
2023-01-15T20:20:49.295Z,99222.68
2023-01-15T20:23:38.597Z,99217.23
2023-01-15T20:26:27.041Z,99216.64
2023-01-15T20:29:11.911Z,99214.12
2023-01-15T20:31:57.317Z,99218.59
2023-01-15T20:34:45.055Z,99221.96
2023-01-15T20:37:31.935Z,99221.82
2023-01-15T20:40:21.669Z,99225.31
2023-01-15T20:43:28.596Z,99219.16
2023-01-15T20:46:15.161Z,99230.00
2023-01-15T20:49:19.313Z,99235.95
2023-01-15T20:52:06.995Z,99231.52
2023-01-15T20:54:51.880Z,99228.15
2023-01-15T20:57:41.900Z,99234.46
2023-01-15T21:00:27.608Z,99233.11
2023-01-15T21:03:12.559Z,99228.78
2023-01-15T21:05:58.891Z,99232.33
2023-01-15T21:08:45.393Z,99235.40
2023-01-15T21:11:31.462Z,99234.48
2023-01-15T21:14:18.068Z,99233.70
2023-01-15T21:17:06.543Z,99237.94
2023-01-15T21:19:51.872Z,99244.59
2023-01-15T21:22:39.951Z,99242.36
2023-01-15T21:25:25.756Z,99242.19
2023-01-15T21:28:11.850Z,99239.07
2023-01-15T21:30:58.152Z,99235.84
2023-01-15T21:33:43.644Z,99236.19
2023-01-15T21:36:28.527Z,99231.83
2023-01-15T21:39:15.684Z,99237.95
2023-01-15T21:42:19.637Z,99236.45
2023-01-15T21:45:09.609Z,99232.48
2023-01-15T21:47:55.625Z,99236.80
2023-01-15T21:50:41.554Z,99236.81
2023-01-15T21:53:27.918Z,99233.87
2023-01-15T21:56:13.414Z,99243.95
2023-01-15T21:58:59.018Z,99249.48
2023-01-15T22:01:44.223Z,99244.52
2023-01-15T22:04:32.818Z,99243.61
2023-01-15T22:07:18.484Z,99250.11
2023-01-15T22:10:04.326Z,99245.37
2023-01-15T22:12:49.527Z,99240.51
2023-01-15T22:15:35.057Z,99242.30
2023-01-15T22:18:24.360Z,99246.94
2023-01-15T22:21:14.883Z,99248.69
2023-01-15T22:24:02.105Z,99246.76
2023-01-15T22:26:54.549Z,99251.85
2023-01-15T22:29:42.731Z,99246.46
2023-01-15T22:32:27.796Z,99243.81
2023-01-15T22:35:13.278Z,99245.66
2023-01-15T22:37:58.687Z,99244.84
2023-01-15T22:40:44.063Z,99242.09
2023-01-15T22:43:30.571Z,99236.84
2023-01-15T22:46:15.798Z,99234.05
2023-01-15T22:49:00.859Z,99245.79
2023-01-15T22:51:46.731Z,99244.12
2023-01-15T22:54:31.807Z,99243.78
2023-01-15T22:57:16.968Z,99245.02
2023-01-15T23:00:05.760Z,99235.02
2023-01-15T23:02:54.043Z,99238.02
2023-01-15T23:05:39.456Z,99239.98
2023-01-15T23:08:25.733Z,99244.77
2023-01-15T23:11:15.309Z,99239.92
2023-01-15T23:14:00.801Z,99237.20
2023-01-15T23:16:46.007Z,99234.54
2023-01-15T23:19:31.361Z,99232.69
2023-01-15T23:22:16.763Z,99232.45
2023-01-15T23:25:02.556Z,99234.87
2023-01-15T23:27:48.115Z,99231.67
2023-01-15T23:30:33.187Z,99232.27
2023-01-15T23:33:18.460Z,99235.52
2023-01-15T23:36:06.464Z,99234.32
2023-01-15T23:38:52.654Z,99234.48
2023-01-15T23:41:57.776Z,99228.75
2023-01-15T23:45:01.895Z,99230.63
2023-01-15T23:47:47.888Z,99229.71
2023-01-15T23:50:33.291Z,99229.67
2023-01-15T23:53:18.531Z,99225.94
2023-01-15T23:56:05.278Z,99221.21
2023-01-15T23:58:50.783Z,99222.68
